createdAt,value
2017-08-27T00:01:03.754Z,15.75
2017-08-27T00:03:29.773Z,12.30
2017-08-27T00:05:55.845Z,12.23
2017-08-27T00:08:21.886Z,13.00
2017-08-27T00:10:47.932Z,15.18
2017-08-27T00:13:14.318Z,11.83
2017-08-27T00:15:40.360Z,19.00
2017-08-27T00:18:06.406Z,15.55
2017-08-27T00:20:32.446Z,11.98
2017-08-27T00:22:58.556Z,11.23
2017-08-27T00:25:24.607Z,11.77
2017-08-27T00:27:50.660Z,13.00
2017-08-27T00:30:16.709Z,12.90
2017-08-27T00:32:42.762Z,12.13
2017-08-27T00:35:08.811Z,9.52
2017-08-27T00:37:34.870Z,12.98
2017-08-27T00:40:00.932Z,12.43
2017-08-27T00:42:26.986Z,15.15
2017-08-27T00:44:53.075Z,16.52
2017-08-27T00:47:19.152Z,15.50
2017-08-27T00:49:45.182Z,17.55
2017-08-27T00:52:11.278Z,16.00
2017-08-27T00:54:37.325Z,19.80
2017-08-27T00:57:03.381Z,20.23
2017-08-27T00:59:29.602Z,20.15
2017-08-27T01:01:55.648Z,23.58
2017-08-27T01:04:21.854Z,19.50
2017-08-27T01:06:47.902Z,20.85
2017-08-27T01:09:13.947Z,22.77
2017-08-27T01:11:40.018Z,19.77
2017-08-27T01:14:06.911Z,28.53
2017-08-27T01:16:32.938Z,22.02
2017-08-27T01:18:59.371Z,24.12
2017-08-27T01:21:25.442Z,23.58
2017-08-27T01:23:51.487Z,26.05
2017-08-27T01:26:17.582Z,22.42
2017-08-27T01:28:43.635Z,27.45
2017-08-27T01:31:09.679Z,27.25
2017-08-27T01:33:35.719Z,28.17
2017-08-27T01:36:01.735Z,64.93
2017-08-27T01:38:28.574Z,36.85
2017-08-27T01:40:54.590Z,58.28
2017-08-27T01:43:20.621Z,68.72
2017-08-27T01:45:46.692Z,79.57
2017-08-27T01:48:12.748Z,86.15
2017-08-27T01:50:38.788Z,56.88
2017-08-27T01:53:04.850Z,90.43
2017-08-27T01:55:30.891Z,30.77
2017-08-27T01:57:56.982Z,29.30
2017-08-27T02:00:23.063Z,29.25
2017-08-27T02:02:49.118Z,30.75
2017-08-27T02:05:15.147Z,31.80
2017-08-27T02:07:41.595Z,25.80
2017-08-27T02:10:07.626Z,25.83
2017-08-27T02:12:33.647Z,27.87
2017-08-27T02:14:59.734Z,26.05
2017-08-27T02:17:25.788Z,24.75
2017-08-27T02:19:51.854Z,23.50
2017-08-27T02:22:17.955Z,26.90
2017-08-27T02:24:43.998Z,28.23
2017-08-27T02:27:10.055Z,25.50
2017-08-27T02:29:36.202Z,22.40
2017-08-27T02:32:02.231Z,24.80
2017-08-27T02:34:28.320Z,24.70
2017-08-27T02:36:54.593Z,23.90
2017-08-27T02:39:20.619Z,21.37
2017-08-27T02:41:46.639Z,24.52
2017-08-27T02:44:12.896Z,23.33
2017-08-27T02:46:38.972Z,21.83
2017-08-27T02:49:05.010Z,24.10
2017-08-27T02:51:31.086Z,25.10
2017-08-27T02:53:57.122Z,26.67
2017-08-27T02:56:23.161Z,25.42
2017-08-27T02:58:49.232Z,33.87
2017-08-27T03:01:15.287Z,28.40
2017-08-27T03:03:41.345Z,29.97
2017-08-27T03:06:07.379Z,30.88
2017-08-27T03:08:33.410Z,30.97
2017-08-27T03:10:59.799Z,33.88
2017-08-27T03:13:25.838Z,34.95
2017-08-27T03:15:51.868Z,36.20
2017-08-27T03:18:17.978Z,31.77
2017-08-27T03:20:44.001Z,36.92
2017-08-27T03:23:10.025Z,31.92
2017-08-27T03:25:36.081Z,35.78
2017-08-27T03:28:02.114Z,35.97
2017-08-27T03:30:28.142Z,32.63
2017-08-27T03:32:54.158Z,33.15
2017-08-27T03:35:20.175Z,33.80
2017-08-27T03:37:46.259Z,32.90
2017-08-27T03:40:12.284Z,34.83
2017-08-27T03:42:38.309Z,36.00
2017-08-27T03:45:04.760Z,39.38
2017-08-27T03:47:30.771Z,36.55
2017-08-27T03:49:56.796Z,38.35
2017-08-27T03:52:22.979Z,38.30
2017-08-27T03:54:48.998Z,38.50
2017-08-27T03:57:15.010Z,37.78
2017-08-27T03:59:41.095Z,38.15
2017-08-27T04:02:07.233Z,34.60
2017-08-27T04:04:33.319Z,39.97
2017-08-27T04:06:59.344Z,39.15
2017-08-27T04:09:25.367Z,37.22
2017-08-27T04:11:51.662Z,37.75
2017-08-27T04:14:17.703Z,40.22
2017-08-27T04:16:43.719Z,43.80
2017-08-27T04:19:09.790Z,42.40
2017-08-27T04:21:35.837Z,42.57
2017-08-27T04:24:01.868Z,43.22
2017-08-27T04:26:28.318Z,48.97
2017-08-27T04:28:54.365Z,47.80
2017-08-27T04:31:20.414Z,48.70
2017-08-27T04:33:46.426Z,51.33
2017-08-27T04:36:12.516Z,47.88
2017-08-27T04:38:38.555Z,47.22
2017-08-27T04:41:04.572Z,51.55
2017-08-27T04:43:30.962Z,47.53
2017-08-27T04:45:57.071Z,48.83
2017-08-27T04:48:23.262Z,52.53
2017-08-27T04:50:49.358Z,49.90
2017-08-27T04:53:15.398Z,47.30
2017-08-27T04:55:41.406Z,46.30
2017-08-27T04:58:07.456Z,50.65
2017-08-27T05:00:33.506Z,46.83
2017-08-27T05:02:59.571Z,47.08
2017-08-27T05:05:25.639Z,48.42
2017-08-27T05:07:51.675Z,46.80
2017-08-27T05:10:17.769Z,48.53
2017-08-27T05:12:43.825Z,44.60
2017-08-27T05:15:09.858Z,48.60
2017-08-27T05:17:35.875Z,47.55
2017-08-27T05:20:01.918Z,44.33
2017-08-27T05:22:27.934Z,47.10
2017-08-27T05:24:53.954Z,47.78
2017-08-27T05:27:20.367Z,45.92
2017-08-27T05:29:46.453Z,45.08
2017-08-27T05:32:12.491Z,45.50
2017-08-27T05:34:38.566Z,53.05
2017-08-27T05:37:04.599Z,48.77
2017-08-27T05:39:30.638Z,45.92
2017-08-27T05:41:56.662Z,41.73
2017-08-27T05:44:25.197Z,42.67
2017-08-27T05:46:51.260Z,38.67
2017-08-27T05:49:17.275Z,41.80
2017-08-27T05:51:43.318Z,41.40
2017-08-27T05:54:09.678Z,35.27
2017-08-27T05:56:35.720Z,34.03
2017-08-27T05:59:01.765Z,35.28
2017-08-27T06:01:28.056Z,34.80
2017-08-27T06:03:54.235Z,32.58
2017-08-27T06:06:20.258Z,32.50
2017-08-27T06:08:46.303Z,30.90
2017-08-27T06:11:12.342Z,29.25
2017-08-27T06:13:38.394Z,28.85
2017-08-27T06:16:04.414Z,28.25
2017-08-27T06:18:30.474Z,32.65
2017-08-27T06:20:56.506Z,23.75
2017-08-27T06:23:22.602Z,25.85
2017-08-27T06:25:48.639Z,24.92
2017-08-27T06:28:14.691Z,19.70
2017-08-27T06:30:40.778Z,24.60
2017-08-27T06:33:06.803Z,25.23
2017-08-27T06:35:32.880Z,17.40
2017-08-27T06:37:58.942Z,17.10
2017-08-27T06:42:17.143Z,15.93
2017-08-27T06:44:43.238Z,16.17
2017-08-27T06:47:09.267Z,17.33
2017-08-27T06:49:35.319Z,20.92
2017-08-27T06:52:01.370Z,14.63
2017-08-27T06:54:27.443Z,11.75
2017-08-27T06:56:53.494Z,10.87
2017-08-27T06:59:19.534Z,13.05
2017-08-27T07:01:45.563Z,12.60
2017-08-27T07:04:11.591Z,11.73
2017-08-27T07:06:37.653Z,13.40
2017-08-27T07:09:03.714Z,8.82
2017-08-27T07:11:29.734Z,8.43
2017-08-27T07:13:55.800Z,9.68
2017-08-27T07:16:21.830Z,8.77
2017-08-27T07:18:47.871Z,10.13
2017-08-27T07:21:13.895Z,10.83
2017-08-27T07:23:39.946Z,9.07
2017-08-27T07:26:06.334Z,7.30
2017-08-27T07:28:32.429Z,10.82
2017-08-27T07:30:58.499Z,11.02
2017-08-27T07:33:24.590Z,9.60
2017-08-27T07:35:50.620Z,9.27
2017-08-27T07:38:16.662Z,10.87
2017-08-27T07:40:43.011Z,6.82
2017-08-27T07:43:09.060Z,6.95
2017-08-27T07:45:35.167Z,6.18
2017-08-27T07:48:01.468Z,7.50
2017-08-27T07:50:27.514Z,6.60
2017-08-27T07:52:53.545Z,7.10
2017-08-27T07:55:19.578Z,6.30
2017-08-27T07:57:45.607Z,6.10
2017-08-27T08:00:11.659Z,6.87
2017-08-27T08:02:37.818Z,8.05
2017-08-27T08:05:03.854Z,9.47
2017-08-27T08:07:29.920Z,7.25
2017-08-27T08:09:55.954Z,4.80
2017-08-27T08:12:22.011Z,6.05
2017-08-27T08:14:48.083Z,7.53
2017-08-27T08:17:14.142Z,6.03
2017-08-27T08:19:40.199Z,9.23
2017-08-27T08:22:06.222Z,6.72
2017-08-27T08:24:32.274Z,6.37
2017-08-27T08:26:58.328Z,4.22
2017-08-27T08:29:24.358Z,7.93
2017-08-27T08:31:50.402Z,9.35
2017-08-27T08:34:16.428Z,8.30
2017-08-27T08:36:42.508Z,7.72
2017-08-27T08:39:08.722Z,6.70
2017-08-27T08:41:34.823Z,4.72
2017-08-27T08:44:00.878Z,4.13
2017-08-27T08:46:26.936Z,6.45
2017-08-27T08:48:52.987Z,6.47
2017-08-27T08:51:19.536Z,8.77
2017-08-27T08:53:45.618Z,4.70
2017-08-27T08:56:11.702Z,6.05
2017-08-27T08:58:37.905Z,4.37
2017-08-27T09:01:03.920Z,5.17
2017-08-27T09:03:29.970Z,5.32
2017-08-27T09:05:56.294Z,6.50
2017-08-27T09:08:22.314Z,9.80
2017-08-27T09:10:48.382Z,9.40
2017-08-27T09:13:14.440Z,6.28
2017-08-27T09:15:40.454Z,4.85
2017-08-27T09:18:06.488Z,9.32
2017-08-27T09:20:32.521Z,5.00
2017-08-27T09:22:58.574Z,6.45
2017-08-27T09:25:24.634Z,5.68
2017-08-27T09:27:50.687Z,7.18
2017-08-27T09:30:16.729Z,7.03
2017-08-27T09:32:42.738Z,5.65
2017-08-27T09:35:08.832Z,7.40
2017-08-27T09:37:34.862Z,9.05
2017-08-27T09:40:00.890Z,16.77
2017-08-27T09:42:26.934Z,15.70
2017-08-27T09:44:53.030Z,5.87
2017-08-27T09:47:19.079Z,8.23
2017-08-27T09:49:45.186Z,5.87
2017-08-27T09:52:11.206Z,3.83
2017-08-27T09:54:37.238Z,5.45
2017-08-27T09:57:03.312Z,6.15
2017-08-27T09:59:29.368Z,5.60
2017-08-27T10:01:55.395Z,4.97
2017-08-27T10:04:21.491Z,7.28
2017-08-27T10:06:47.507Z,4.05
2017-08-27T10:09:13.526Z,6.57
2017-08-27T10:11:39.606Z,4.28
2017-08-27T10:14:05.666Z,4.47
2017-08-27T10:16:31.707Z,5.90
2017-08-27T10:18:57.765Z,4.72
2017-08-27T10:21:23.958Z,4.03
2017-08-27T10:23:50.007Z,4.65
2017-08-27T10:26:16.028Z,6.10
2017-08-27T10:28:42.426Z,5.50
2017-08-27T10:31:08.442Z,4.82
2017-08-27T10:33:34.479Z,6.25
2017-08-27T10:36:00.538Z,5.95
2017-08-27T10:38:26.575Z,4.60
2017-08-27T10:40:52.636Z,6.57
2017-08-27T10:43:18.704Z,5.72
2017-08-27T10:45:44.785Z,5.50
2017-08-27T10:48:10.828Z,7.22
2017-08-27T10:50:36.936Z,10.45
2017-08-27T10:53:03.036Z,6.90
2017-08-27T10:55:29.107Z,8.32
2017-08-27T10:57:55.303Z,5.35
2017-08-27T11:00:21.339Z,5.37
2017-08-27T11:02:47.355Z,6.20
2017-08-27T11:05:13.386Z,7.23
2017-08-27T11:07:39.439Z,6.65
2017-08-27T11:10:05.818Z,3.90
2017-08-27T11:12:31.858Z,4.53
2017-08-27T11:14:57.891Z,6.43
2017-08-27T11:17:23.942Z,4.60
2017-08-27T11:19:49.942Z,5.55
2017-08-27T11:22:15.978Z,7.22
2017-08-27T11:24:43.275Z,7.07
2017-08-27T11:27:09.352Z,4.32
2017-08-27T11:29:35.387Z,5.18
2017-08-27T11:32:01.674Z,7.80
2017-08-27T11:34:27.875Z,5.32
2017-08-27T11:36:53.918Z,5.65
2017-08-27T11:39:19.963Z,6.70
2017-08-27T11:41:46.009Z,4.70
2017-08-27T11:44:12.085Z,6.20
2017-08-27T11:46:38.319Z,3.58
2017-08-27T11:49:04.488Z,4.87
2017-08-27T11:51:30.579Z,5.97
2017-08-27T11:53:56.874Z,5.27
2017-08-27T11:56:23.366Z,5.72
2017-08-27T11:58:49.422Z,6.62
2017-08-27T12:01:15.542Z,16.83
2017-08-27T12:03:41.634Z,37.92
2017-08-27T12:06:07.658Z,29.83
2017-08-27T12:08:33.744Z,5.72
2017-08-27T12:11:00.685Z,6.60
2017-08-27T12:13:26.702Z,5.47
2017-08-27T12:15:53.106Z,4.95
2017-08-27T12:18:19.161Z,5.80
2017-08-27T12:20:45.214Z,5.50
2017-08-27T12:23:11.523Z,6.35
2017-08-27T12:25:37.571Z,4.80
2017-08-27T12:28:03.619Z,3.62
2017-08-27T12:30:30.402Z,3.10
2017-08-27T12:32:56.658Z,5.28
2017-08-27T12:35:22.696Z,5.83
2017-08-27T12:37:48.934Z,3.62
2017-08-27T12:40:14.962Z,7.73
2017-08-27T12:42:41.299Z,9.18
2017-08-27T12:45:07.723Z,6.20
2017-08-27T12:47:33.746Z,3.50
2017-08-27T12:49:59.762Z,7.43
2017-08-27T12:52:25.795Z,5.45
2017-08-27T12:54:51.878Z,3.60
2017-08-27T12:57:17.940Z,4.28
2017-08-27T12:59:44.094Z,4.70
2017-08-27T13:02:10.205Z,6.97
2017-08-27T13:04:36.253Z,4.72
2017-08-27T13:07:02.526Z,5.60
2017-08-27T13:09:29.300Z,4.45
2017-08-27T13:11:55.344Z,5.68
2017-08-27T13:14:21.382Z,5.00
2017-08-27T13:16:47.434Z,6.40
2017-08-27T13:19:13.482Z,4.25
2017-08-27T13:21:42.796Z,3.73
2017-08-27T13:24:08.879Z,4.18
2017-08-27T13:26:34.907Z,3.15
2017-08-27T13:29:00.964Z,2.47
2017-08-27T13:31:27.256Z,2.80
2017-08-27T13:33:57.813Z,3.12
2017-08-27T13:36:24.399Z,2.73
2017-08-27T13:38:50.447Z,3.60
2017-08-27T13:41:16.506Z,5.10
2017-08-27T13:43:42.543Z,4.78
2017-08-27T13:46:08.615Z,5.50
2017-08-27T13:48:34.690Z,6.50
2017-08-27T13:51:00.754Z,3.17
2017-08-27T13:53:26.795Z,7.10
2017-08-27T13:55:52.827Z,2.80
2017-08-27T13:58:18.861Z,3.73
2017-08-27T14:00:44.903Z,4.25
2017-08-27T14:03:10.924Z,5.03
2017-08-27T14:05:36.964Z,3.92
2017-08-27T14:08:03.195Z,3.45
2017-08-27T14:10:29.235Z,4.25
2017-08-27T14:12:55.262Z,5.28
2017-08-27T14:15:21.293Z,3.00
2017-08-27T14:17:47.322Z,5.28
2017-08-27T14:20:13.339Z,4.28
2017-08-27T14:22:39.622Z,3.60
2017-08-27T14:25:05.670Z,2.60
2017-08-27T14:27:31.686Z,3.37
2017-08-27T14:29:57.742Z,5.30
2017-08-27T14:32:23.799Z,3.53
2017-08-27T14:34:49.834Z,4.15
2017-08-27T14:37:16.198Z,3.90
2017-08-27T14:39:42.238Z,3.60
2017-08-27T14:42:08.658Z,3.17
2017-08-27T14:44:34.795Z,3.65
2017-08-27T14:47:00.805Z,7.97
2017-08-27T14:49:26.922Z,4.33
2017-08-27T14:51:53.093Z,5.03
2017-08-27T14:54:19.110Z,4.97
2017-08-27T14:56:45.139Z,7.07
2017-08-27T14:59:11.470Z,4.28
2017-08-27T15:01:37.500Z,4.32
2017-08-27T15:04:03.512Z,6.63
2017-08-27T15:06:29.734Z,4.07
2017-08-27T15:08:55.760Z,3.95
2017-08-27T15:11:21.815Z,4.93
2017-08-27T15:13:48.114Z,7.30
2017-08-27T15:16:14.165Z,2.95
2017-08-27T15:18:40.182Z,4.85
2017-08-27T15:21:06.238Z,5.03
2017-08-27T15:23:32.290Z,6.25
2017-08-27T15:25:58.342Z,5.80
2017-08-27T15:28:24.413Z,4.90
2017-08-27T15:30:50.447Z,3.70
2017-08-27T15:33:16.498Z,6.25
2017-08-27T15:35:42.583Z,7.07
2017-08-27T15:38:08.632Z,6.70
2017-08-27T15:40:34.658Z,3.30
2017-08-27T15:43:00.712Z,3.73
2017-08-27T15:45:26.735Z,8.10
2017-08-27T15:47:52.811Z,6.33
2017-08-27T15:50:19.299Z,3.80
2017-08-27T15:52:45.381Z,6.32
2017-08-27T15:55:11.438Z,4.30
2017-08-27T15:57:37.506Z,6.90
2017-08-27T16:00:03.558Z,3.80
2017-08-27T16:02:29.618Z,4.33
2017-08-27T16:04:55.686Z,3.05
2017-08-27T16:07:21.744Z,6.97
2017-08-27T16:09:47.819Z,3.80
2017-08-27T16:12:13.871Z,4.03
2017-08-27T16:14:39.910Z,4.62
2017-08-27T16:17:05.958Z,4.12
2017-08-27T16:19:32.228Z,4.47
2017-08-27T16:21:58.262Z,4.50
2017-08-27T16:24:24.330Z,3.60
2017-08-27T16:26:50.414Z,3.80
2017-08-27T16:29:16.582Z,3.80
2017-08-27T16:31:42.664Z,6.80
2017-08-27T16:34:08.774Z,5.03
2017-08-27T16:36:34.819Z,6.35
2017-08-27T16:39:00.876Z,6.20
2017-08-27T16:41:26.947Z,3.65
2017-08-27T16:43:52.987Z,3.70
2017-08-27T16:46:19.094Z,4.32
2017-08-27T16:48:45.741Z,2.80
2017-08-27T16:51:11.905Z,3.50
2017-08-27T16:53:37.966Z,5.62
2017-08-27T16:56:04.051Z,4.47
2017-08-27T16:58:30.111Z,7.28
2017-08-27T17:00:56.159Z,66.47
2017-08-27T17:03:22.240Z,180.68
2017-08-27T17:05:48.270Z,208.73
2017-08-27T17:08:14.395Z,77.20
2017-08-27T17:10:40.496Z,33.35
2017-08-27T17:13:06.543Z,11.20
2017-08-27T17:15:32.865Z,8.32
2017-08-27T17:17:59.143Z,10.40
2017-08-27T17:20:25.192Z,7.70
2017-08-27T17:22:51.294Z,7.18
2017-08-27T17:25:17.364Z,4.30
2017-08-27T17:27:43.462Z,6.05
2017-08-27T17:30:09.523Z,3.00
2017-08-27T17:32:43.359Z,5.22
2017-08-27T17:35:09.432Z,5.20
2017-08-27T17:37:35.480Z,4.63
2017-08-27T17:40:01.564Z,5.20
2017-08-27T17:42:27.765Z,8.13
2017-08-27T17:44:53.841Z,3.20
2017-08-27T17:47:19.958Z,4.70
2017-08-27T17:49:46.064Z,5.32
2017-08-27T17:52:12.133Z,4.93
2017-08-27T17:54:38.218Z,5.85
2017-08-27T17:57:04.272Z,4.00
2017-08-27T17:59:30.339Z,4.62
2017-08-27T18:01:56.380Z,7.20
2017-08-27T18:04:22.727Z,5.50
2017-08-27T18:06:48.767Z,3.85
2017-08-27T18:09:14.834Z,5.93
2017-08-27T18:11:40.906Z,6.03
2017-08-27T18:14:06.975Z,7.40
2017-08-27T18:16:33.007Z,7.93
2017-08-27T18:18:59.054Z,10.30
2017-08-27T18:21:25.081Z,6.43
2017-08-27T18:23:51.119Z,4.95
2017-08-27T18:26:17.283Z,5.30
2017-08-27T18:28:43.367Z,4.82
2017-08-27T18:31:09.434Z,5.15
2017-08-27T18:33:35.558Z,5.25
2017-08-27T18:36:01.630Z,4.50
2017-08-27T18:38:27.814Z,4.87
2017-08-27T18:40:53.857Z,7.20
2017-08-27T18:43:19.984Z,6.93
2017-08-27T18:45:46.018Z,6.12
2017-08-27T18:48:12.050Z,9.00
2017-08-27T18:50:38.147Z,6.85
2017-08-27T18:53:04.177Z,6.87
2017-08-27T18:55:30.217Z,7.18
2017-08-27T18:57:56.293Z,7.28
2017-08-27T19:00:22.334Z,11.25
2017-08-27T19:02:54.554Z,6.47
2017-08-27T19:05:20.826Z,6.47
2017-08-27T19:07:46.891Z,8.48
2017-08-27T19:10:12.938Z,5.53
2017-08-27T19:12:39.002Z,5.87
2017-08-27T19:15:05.098Z,8.63
2017-08-27T19:17:31.158Z,5.25
2017-08-27T19:19:57.272Z,7.22
2017-08-27T19:22:23.339Z,7.20
2017-08-27T19:24:49.391Z,6.78
2017-08-27T19:27:15.487Z,19.52
2017-08-27T19:29:41.570Z,6.37
2017-08-27T19:32:07.614Z,8.52
2017-08-27T19:34:33.663Z,6.95
2017-08-27T19:36:59.713Z,8.25
2017-08-27T19:39:25.760Z,8.18
2017-08-27T19:41:52.271Z,7.50
2017-08-27T19:44:18.339Z,8.25
2017-08-27T19:46:44.397Z,7.35
2017-08-27T19:49:10.442Z,7.20
2017-08-27T19:51:36.537Z,9.07
2017-08-27T19:54:02.558Z,8.40
2017-08-27T19:56:28.616Z,10.02
2017-08-27T19:58:54.679Z,6.78
2017-08-27T20:01:20.844Z,5.78
2017-08-27T20:03:46.897Z,8.43
2017-08-27T20:06:12.977Z,8.00
2017-08-27T20:08:39.106Z,6.97
2017-08-27T20:11:05.137Z,7.15
2017-08-27T20:13:31.179Z,9.57
2017-08-27T20:15:57.242Z,8.85
2017-08-27T20:18:23.348Z,7.40
2017-08-27T20:20:49.375Z,8.52
2017-08-27T20:23:15.751Z,7.07
2017-08-27T20:25:42.800Z,7.63
2017-08-27T20:28:08.847Z,8.90
2017-08-27T20:30:34.879Z,8.73
2017-08-27T20:33:01.030Z,7.15
2017-08-27T20:35:27.104Z,7.40
2017-08-27T20:37:53.170Z,8.68
2017-08-27T20:40:19.199Z,10.83
2017-08-27T20:42:45.261Z,8.02
2017-08-27T20:45:11.326Z,9.10
2017-08-27T20:47:37.392Z,10.27
2017-08-27T20:50:03.936Z,9.37
2017-08-27T20:52:30.012Z,7.67
2017-08-27T20:54:56.080Z,11.05
2017-08-27T20:57:22.387Z,8.90
2017-08-27T20:59:48.438Z,8.60
2017-08-27T21:02:14.851Z,5.25
2017-08-27T21:04:40.894Z,7.83
2017-08-27T21:07:06.922Z,5.55
2017-08-27T21:09:32.958Z,5.80
2017-08-27T21:11:59.067Z,7.57
2017-08-27T21:14:25.094Z,6.50
2017-08-27T21:16:51.184Z,7.90
2017-08-27T21:19:17.234Z,8.70
2017-08-27T21:21:43.315Z,8.32
2017-08-27T21:24:09.420Z,6.60
2017-08-27T21:26:35.805Z,6.75
2017-08-27T21:29:01.865Z,6.05
2017-08-27T21:31:27.999Z,6.53
2017-08-27T21:33:54.042Z,6.87
2017-08-27T21:36:20.089Z,8.18
2017-08-27T21:38:46.198Z,8.52
2017-08-27T21:41:12.310Z,124.65
2017-08-27T21:43:38.824Z,36.60
2017-08-27T21:46:05.481Z,12.30
2017-08-27T21:48:31.730Z,12.55
2017-08-27T21:50:58.087Z,9.73
2017-08-27T21:53:24.287Z,13.75
2017-08-27T21:55:50.450Z,10.75
2017-08-27T21:58:16.647Z,9.30
2017-08-27T22:00:42.815Z,11.02
2017-08-27T22:03:09.044Z,6.90
2017-08-27T22:05:35.327Z,10.60
2017-08-27T22:08:01.587Z,6.25
2017-08-27T22:10:27.773Z,7.82
2017-08-27T22:12:54.098Z,5.90
2017-08-27T22:15:20.261Z,7.60
2017-08-27T22:17:46.351Z,8.00
2017-08-27T22:20:12.598Z,7.97
2017-08-27T22:22:38.819Z,8.13
2017-08-27T22:25:04.851Z,7.95
2017-08-27T22:27:31.054Z,8.03
2017-08-27T22:29:57.160Z,7.00
2017-08-27T22:32:23.297Z,5.10
2017-08-27T22:34:50.302Z,6.25
2017-08-27T22:37:16.341Z,10.07
2017-08-27T22:39:42.443Z,6.47
2017-08-27T22:42:08.535Z,10.20
2017-08-27T22:44:34.583Z,8.50
2017-08-27T22:47:00.627Z,8.23
2017-08-27T22:49:26.654Z,8.00
2017-08-27T22:51:52.787Z,8.43
2017-08-27T22:54:18.828Z,9.05
2017-08-27T22:56:44.866Z,6.95
2017-08-27T22:59:11.250Z,6.35
2017-08-27T23:01:37.295Z,8.25
2017-08-27T23:04:03.518Z,8.48
2017-08-27T23:06:29.712Z,8.05
2017-08-27T23:08:55.891Z,6.55
2017-08-27T23:11:22.204Z,7.75
2017-08-27T23:13:48.433Z,6.85
2017-08-27T23:16:14.587Z,7.55
2017-08-27T23:18:40.813Z,7.28
2017-08-27T23:21:06.930Z,6.70
2017-08-27T23:23:33.060Z,5.70
2017-08-27T23:25:59.774Z,8.00
2017-08-27T23:28:26.014Z,7.60
2017-08-27T23:30:52.260Z,6.72
2017-08-27T23:33:18.766Z,6.95
2017-08-27T23:35:44.770Z,9.47
2017-08-27T23:38:10.787Z,8.52
2017-08-27T23:40:37.090Z,9.80
2017-08-27T23:43:03.106Z,9.25
2017-08-27T23:45:29.148Z,6.30
2017-08-27T23:47:55.193Z,7.45
2017-08-27T23:50:21.198Z,7.30
2017-08-27T23:52:47.218Z,9.02
2017-08-27T23:55:13.288Z,7.50
2017-08-27T23:57:39.309Z,9.45
